AFR66 LFRS-LFMT
Flight info
| Callsign | AFR66 |
|---|---|
| Flight time | N/A |
| Altitude | 33000 |
| Route | LUGEN UM184 TUPAR DCT CNA DCT SECHE DCT GAI/N0394F190 G39 AFRIC G393 BRUSC |
| Aircraft | A320/M-SDE3FGHIRWY/LB1 |
Departure
| Time | N/A |
|---|---|
| Airport | Nantes Atlantique Airport (LFRS) |
Arrival
| Time | 2026-04-21 20:58 |
|---|---|
| Airport | Montpellier-Méditerranée Airport (LFMT) |
| Time | Latitude | Longitude | Altitude | Speed | Heading |
|---|---|---|---|---|---|
| 2026-04-21 20:10 | 45.24817 | -0.02922 | 32847 ft | 414 kts | 158° |
| 2026-04-21 20:11 | 45.19560 | 0.00665 | 32849 ft | 414 kts | 159° |
| 2026-04-21 20:11 | 45.15003 | 0.03767 | 32855 ft | 415 kts | 159° |
| 2026-04-21 20:12 | 45.09690 | 0.07374 | 32842 ft | 415 kts | 158° |
| 2026-04-21 20:12 | 45.05227 | 0.10403 | 32832 ft | 415 kts | 159° |
| 2026-04-21 20:13 | 44.98983 | 0.14625 | 32831 ft | 415 kts | 158° |
| 2026-04-21 20:13 | 44.93667 | 0.18215 | 32834 ft | 415 kts | 159° |
| 2026-04-21 20:14 | 44.88420 | 0.21747 | 32833 ft | 416 kts | 158° |
| 2026-04-21 20:14 | 44.84487 | 0.24392 | 32828 ft | 416 kts | 158° |
| 2026-04-21 20:15 | 44.79353 | 0.28203 | 32821 ft | 420 kts | 147° |
| 2026-04-21 20:15 | 44.77132 | 0.30891 | 32825 ft | 424 kts | 136° |
| 2026-04-21 20:15 | 44.75226 | 0.34191 | 32828 ft | 426 kts | 125° |
| 2026-04-21 20:16 | 44.72360 | 0.41618 | 32831 ft | 429 kts | 117° |
| 2026-04-21 20:16 | 44.69658 | 0.49125 | 32829 ft | 429 kts | 118° |
| 2026-04-21 20:17 | 44.66916 | 0.56589 | 32837 ft | 429 kts | 118° |
| 2026-04-21 20:17 | 44.64138 | 0.64061 | 32840 ft | 429 kts | 118° |
| 2026-04-21 20:18 | 44.61823 | 0.70257 | 32843 ft | 429 kts | 119° |
| 2026-04-21 20:18 | 44.58573 | 0.78920 | 32843 ft | 429 kts | 119° |
| 2026-04-21 20:19 | 44.55729 | 0.86484 | 32844 ft | 429 kts | 119° |
| 2026-04-21 20:19 | 44.52862 | 0.94083 | 32838 ft | 429 kts | 119° |
| 2026-04-21 20:20 | 44.50249 | 1.00989 | 32843 ft | 429 kts | 119° |
| 2026-04-21 20:20 | 44.47376 | 1.08563 | 32840 ft | 429 kts | 119° |
| 2026-04-21 20:21 | 44.44528 | 1.16047 | 32847 ft | 429 kts | 119° |
| 2026-04-21 20:21 | 44.41661 | 1.23573 | 32853 ft | 429 kts | 119° |
| 2026-04-21 20:22 | 44.38849 | 1.30928 | 32856 ft | 429 kts | 119° |
| 2026-04-21 20:22 | 44.34596 | 1.42016 | 32857 ft | 429 kts | 119° |
| 2026-04-21 20:23 | 44.31750 | 1.49408 | 32853 ft | 428 kts | 119° |
| 2026-04-21 20:23 | 44.29087 | 1.56309 | 32854 ft | 429 kts | 119° |
| 2026-04-21 20:24 | 44.26194 | 1.63789 | 32859 ft | 429 kts | 119° |
| 2026-04-21 20:24 | 44.23286 | 1.71291 | 32861 ft | 428 kts | 120° |
| 2026-04-21 20:25 | 44.20368 | 1.78794 | 32862 ft | 428 kts | 120° |
| 2026-04-21 20:25 | 44.17441 | 1.86296 | 32865 ft | 428 kts | 120° |
| 2026-04-21 20:26 | 44.14498 | 1.93821 | 32812 ft | 424 kts | 120° |
| 2026-04-21 20:26 | 44.13052 | 1.97514 | 32637 ft | 415 kts | 120° |
| 2026-04-21 20:26 | 44.11638 | 2.01125 | 32296 ft | 409 kts | 120° |
| 2026-04-21 20:27 | 44.10237 | 2.04694 | 31838 ft | 406 kts | 120° |
| 2026-04-21 20:27 | 44.08843 | 2.08243 | 31384 ft | 403 kts | 120° |
| 2026-04-21 20:27 | 44.07459 | 2.11757 | 30925 ft | 399 kts | 120° |
| 2026-04-21 20:27 | 44.06107 | 2.15189 | 30487 ft | 396 kts | 120° |
| 2026-04-21 20:28 | 44.04824 | 2.18437 | 30066 ft | 394 kts | 120° |
| 2026-04-21 20:28 | 44.03476 | 2.21846 | 29628 ft | 391 kts | 120° |
| 2026-04-21 20:28 | 44.02119 | 2.25273 | 29180 ft | 388 kts | 120° |
| 2026-04-21 20:28 | 44.00794 | 2.28614 | 28763 ft | 384 kts | 120° |
| 2026-04-21 20:29 | 43.99463 | 2.31971 | 28326 ft | 381 kts | 120° |
| 2026-04-21 20:29 | 43.98164 | 2.35242 | 27892 ft | 379 kts | 120° |
| 2026-04-21 20:29 | 43.96839 | 2.38574 | 27452 ft | 376 kts | 120° |
| 2026-04-21 20:29 | 43.95553 | 2.41805 | 27017 ft | 374 kts | 120° |
| 2026-04-21 20:30 | 43.94245 | 2.45090 | 26567 ft | 372 kts | 120° |
| 2026-04-21 20:30 | 43.92962 | 2.48309 | 26154 ft | 369 kts | 119° |
| 2026-04-21 20:30 | 43.91694 | 2.51484 | 25744 ft | 366 kts | 119° |
| 2026-04-21 20:30 | 43.90424 | 2.54661 | 25336 ft | 364 kts | 119° |
| 2026-04-21 20:31 | 43.89171 | 2.57793 | 24940 ft | 361 kts | 119° |
| 2026-04-21 20:31 | 43.87917 | 2.60920 | 24531 ft | 358 kts | 118° |
| 2026-04-21 20:31 | 43.86685 | 2.63993 | 24126 ft | 356 kts | 118° |
| 2026-04-21 20:31 | 43.85445 | 2.67088 | 23716 ft | 353 kts | 119° |
| 2026-04-21 20:32 | 43.84262 | 2.70032 | 23510 ft | 345 kts | 119° |
| 2026-04-21 20:32 | 43.83151 | 2.72797 | 23333 ft | 336 kts | 119° |
| 2026-04-21 20:32 | 43.81993 | 2.75675 | 23149 ft | 327 kts | 119° |
| 2026-04-21 20:32 | 43.80873 | 2.78453 | 22892 ft | 321 kts | 119° |
| 2026-04-21 20:33 | 43.79771 | 2.81186 | 22551 ft | 318 kts | 118° |
| 2026-04-21 20:33 | 43.78697 | 2.83892 | 22184 ft | 316 kts | 116° |
| 2026-04-21 20:33 | 43.77730 | 2.86724 | 21806 ft | 314 kts | 111° |
| 2026-04-21 20:33 | 43.76960 | 2.89593 | 21436 ft | 312 kts | 105° |
| 2026-04-21 20:34 | 43.76380 | 2.92512 | 21058 ft | 310 kts | 102° |
| 2026-04-21 20:34 | 43.76060 | 2.94385 | 20811 ft | 309 kts | 101° |
| 2026-04-21 20:34 | 43.75744 | 2.96278 | 20564 ft | 308 kts | 101° |
| 2026-04-21 20:34 | 43.75285 | 2.99017 | 20228 ft | 307 kts | 101° |
| 2026-04-21 20:35 | 43.74784 | 3.01964 | 19862 ft | 306 kts | 101° |
| 2026-04-21 20:35 | 43.74280 | 3.04875 | 19511 ft | 304 kts | 101° |
| 2026-04-21 20:35 | 43.73764 | 3.07817 | 19162 ft | 302 kts | 101° |
| 2026-04-21 20:35 | 43.73258 | 3.10696 | 18817 ft | 300 kts | 101° |
| 2026-04-21 20:36 | 43.72752 | 3.13570 | 18469 ft | 298 kts | 101° |
| 2026-04-21 20:36 | 43.72493 | 3.15042 | 18324 ft | 295 kts | 101° |
| 2026-04-21 20:36 | 43.72089 | 3.17326 | 18171 ft | 289 kts | 101° |
| 2026-04-21 20:36 | 43.71610 | 3.20040 | 17878 ft | 286 kts | 101° |
| 2026-04-21 20:37 | 43.71133 | 3.22741 | 17539 ft | 285 kts | 101° |
| 2026-04-21 20:37 | 43.70653 | 3.25467 | 17204 ft | 283 kts | 101° |
| 2026-04-21 20:37 | 43.70173 | 3.28178 | 16876 ft | 281 kts | 101° |
| 2026-04-21 20:37 | 43.69687 | 3.30915 | 16633 ft | 276 kts | 101° |
| 2026-04-21 20:38 | 43.69222 | 3.33529 | 16464 ft | 267 kts | 101° |
| 2026-04-21 20:38 | 43.68771 | 3.36062 | 16288 ft | 259 kts | 101° |
| 2026-04-21 20:38 | 43.68332 | 3.38526 | 16114 ft | 250 kts | 101° |
| 2026-04-21 20:38 | 43.67910 | 3.40892 | 15936 ft | 241 kts | 101° |
| 2026-04-21 20:39 | 43.67504 | 3.43179 | 15738 ft | 233 kts | 101° |
| 2026-04-21 20:39 | 43.67119 | 3.45371 | 15578 ft | 222 kts | 101° |
| 2026-04-21 20:39 | 43.66744 | 3.47503 | 15194 ft | 223 kts | 101° |
| 2026-04-21 20:39 | 43.66366 | 3.49659 | 14722 ft | 227 kts | 101° |
| 2026-04-21 20:40 | 43.65981 | 3.51849 | 14331 ft | 227 kts | 101° |
| 2026-04-21 20:40 | 43.65598 | 3.54021 | 13969 ft | 225 kts | 102° |
| 2026-04-21 20:40 | 43.65219 | 3.56161 | 13616 ft | 223 kts | 102° |
| 2026-04-21 20:40 | 43.64840 | 3.58289 | 13352 ft | 216 kts | 102° |
| 2026-04-21 20:41 | 43.64481 | 3.60307 | 13131 ft | 207 kts | 102° |
| 2026-04-21 20:41 | 43.64129 | 3.62289 | 12817 ft | 204 kts | 102° |
| 2026-04-21 20:41 | 43.63788 | 3.64211 | 12475 ft | 202 kts | 102° |
| 2026-04-21 20:41 | 43.63444 | 3.66147 | 12125 ft | 201 kts | 102° |
| 2026-04-21 20:42 | 43.63101 | 3.68073 | 11778 ft | 200 kts | 103° |
| 2026-04-21 20:42 | 43.62757 | 3.69997 | 11424 ft | 199 kts | 103° |
| 2026-04-21 20:42 | 43.62418 | 3.71900 | 11072 ft | 198 kts | 103° |
| 2026-04-21 20:42 | 43.62100 | 3.73679 | 10745 ft | 197 kts | 103° |
| 2026-04-21 20:43 | 43.61769 | 3.75523 | 10405 ft | 196 kts | 103° |
| 2026-04-21 20:43 | 43.61437 | 3.77378 | 10062 ft | 195 kts | 103° |
| 2026-04-21 20:43 | 43.61106 | 3.79222 | 9754 ft | 194 kts | 103° |
| 2026-04-21 20:43 | 43.60777 | 3.81059 | 9450 ft | 193 kts | 103° |
| 2026-04-21 20:44 | 43.60447 | 3.82899 | 9147 ft | 191 kts | 103° |
| 2026-04-21 20:44 | 43.60131 | 3.84658 | 8856 ft | 190 kts | 103° |
| 2026-04-21 20:44 | 43.59813 | 3.86423 | 8553 ft | 188 kts | 103° |
| 2026-04-21 20:44 | 43.59499 | 3.88173 | 8256 ft | 187 kts | 104° |
| 2026-04-21 20:45 | 43.59178 | 3.89952 | 7944 ft | 186 kts | 104° |
| 2026-04-21 20:45 | 43.58861 | 3.91703 | 7643 ft | 184 kts | 104° |
| 2026-04-21 20:45 | 43.58544 | 3.93454 | 7337 ft | 183 kts | 104° |
| 2026-04-21 20:45 | 43.58220 | 3.95221 | 7032 ft | 182 kts | 108° |
| 2026-04-21 20:46 | 43.57719 | 3.96853 | 6724 ft | 179 kts | 123° |
| 2026-04-21 20:46 | 43.56947 | 3.98243 | 6415 ft | 176 kts | 138° |
| 2026-04-21 20:46 | 43.55989 | 3.99316 | 6117 ft | 173 kts | 147° |
| 2026-04-21 20:46 | 43.55275 | 3.99996 | 5902 ft | 172 kts | 148° |
| 2026-04-21 20:47 | 43.54307 | 4.00895 | 5611 ft | 170 kts | 148° |
| 2026-04-21 20:47 | 43.53296 | 4.01842 | 5308 ft | 169 kts | 147° |
| 2026-04-21 20:47 | 43.52349 | 4.02734 | 5021 ft | 167 kts | 146° |
| 2026-04-21 20:47 | 43.51700 | 4.03352 | 4833 ft | 165 kts | 146° |
| 2026-04-21 20:48 | 43.50728 | 4.04279 | 4574 ft | 165 kts | 145° |
| 2026-04-21 20:48 | 43.49755 | 4.05209 | 4324 ft | 165 kts | 144° |
| 2026-04-21 20:48 | 43.48786 | 4.06138 | 4065 ft | 164 kts | 144° |
| 2026-04-21 20:48 | 43.47831 | 4.07057 | 3813 ft | 163 kts | 143° |
| 2026-04-21 20:49 | 43.46875 | 4.07975 | 3558 ft | 161 kts | 143° |
| 2026-04-21 20:49 | 43.45913 | 4.08897 | 3300 ft | 160 kts | 143° |
| 2026-04-21 20:49 | 43.44978 | 4.09791 | 3043 ft | 160 kts | 142° |
| 2026-04-21 20:49 | 43.44030 | 4.10699 | 2787 ft | 159 kts | 142° |
| 2026-04-21 20:50 | 43.43089 | 4.11602 | 2531 ft | 159 kts | 142° |
| 2026-04-21 20:50 | 43.42168 | 4.12483 | 2365 ft | 157 kts | 141° |
| 2026-04-21 20:50 | 43.41222 | 4.13402 | 2365 ft | 159 kts | 136° |
| 2026-04-21 20:50 | 43.40480 | 4.14548 | 2373 ft | 155 kts | 118° |
| 2026-04-21 20:51 | 43.40059 | 4.15949 | 2360 ft | 153 kts | 99° |
| 2026-04-21 20:51 | 43.39988 | 4.17434 | 2354 ft | 151 kts | 82° |
| 2026-04-21 20:51 | 43.40258 | 4.18867 | 2351 ft | 150 kts | 65° |
| 2026-04-21 20:51 | 43.40836 | 4.20107 | 2354 ft | 149 kts | 48° |
| 2026-04-21 20:52 | 43.41652 | 4.21034 | 2350 ft | 149 kts | 31° |
| 2026-04-21 20:52 | 43.42637 | 4.21572 | 2358 ft | 146 kts | 14° |
| 2026-04-21 20:52 | 43.43663 | 4.21674 | 2347 ft | 144 kts | 358° |
| 2026-04-21 20:52 | 43.44683 | 4.21344 | 2349 ft | 146 kts | 342° |
| 2026-04-21 20:53 | 43.45594 | 4.20574 | 2351 ft | 150 kts | 323° |
| 2026-04-21 20:53 | 43.46365 | 4.19520 | 2351 ft | 152 kts | 315° |
| 2026-04-21 20:53 | 43.47062 | 4.18360 | 2349 ft | 152 kts | 312° |
| 2026-04-21 20:53 | 43.47724 | 4.17177 | 2349 ft | 153 kts | 310° |
| 2026-04-21 20:54 | 43.48367 | 4.15964 | 2344 ft | 152 kts | 309° |
| 2026-04-21 20:54 | 43.48996 | 4.14740 | 2343 ft | 151 kts | 308° |
| 2026-04-21 20:54 | 43.49615 | 4.13511 | 2346 ft | 152 kts | 308° |
| 2026-04-21 20:54 | 43.50236 | 4.12268 | 2347 ft | 151 kts | 308° |
| 2026-04-21 20:55 | 43.50853 | 4.11031 | 2191 ft | 150 kts | 308° |
| 2026-04-21 20:55 | 43.51445 | 4.09840 | 1974 ft | 143 kts | 308° |
| 2026-04-21 20:55 | 43.52023 | 4.08683 | 1785 ft | 141 kts | 309° |
| 2026-04-21 20:55 | 43.52594 | 4.07545 | 1600 ft | 141 kts | 309° |
| 2026-04-21 20:56 | 43.53167 | 4.06401 | 1413 ft | 140 kts | 309° |
| 2026-04-21 20:56 | 43.53732 | 4.05274 | 1226 ft | 140 kts | 309° |
| 2026-04-21 20:56 | 43.54303 | 4.04136 | 1034 ft | 140 kts | 308° |
| 2026-04-21 20:56 | 43.54867 | 4.03014 | 843 ft | 139 kts | 307° |
| 2026-04-21 20:57 | 43.55428 | 4.01899 | 653 ft | 139 kts | 307° |
| 2026-04-21 20:57 | 43.55982 | 4.00797 | 468 ft | 138 kts | 307° |
| 2026-04-21 20:57 | 43.56529 | 3.99710 | 286 ft | 138 kts | 306° |
| 2026-04-21 20:57 | 43.57076 | 3.98623 | 104 ft | 137 kts | 306° |
| 2026-04-21 20:58 | 43.57597 | 3.97590 | 13 ft | 121 kts | 305° |
| 2026-04-21 20:58 | 43.57979 | 3.96835 | 13 ft | 72 kts | 306° |
| 2026-04-21 20:58 | 43.58163 | 3.96468 | 13 ft | 23 kts | 305° |
| 2026-04-21 20:58 | 43.58239 | 3.96313 | 14 ft | 19 kts | 304° |
| 2026-04-21 20:59 | 43.58305 | 3.96181 | 15 ft | 14 kts | 298° |
| 2026-04-21 20:59 | 43.58297 | 3.96054 | 16 ft | 14 kts | 242° |
| 2026-04-21 20:59 | 43.58250 | 3.95934 | 17 ft | 14 kts | 242° |
| 2026-04-21 20:59 | 43.58205 | 3.95815 | 19 ft | 13 kts | 242° |
| 2026-04-21 21:00 | 43.58132 | 3.95775 | 20 ft | 12 kts | 153° |
| 2026-04-21 21:00 | 43.58074 | 3.95871 | 20 ft | 11 kts | 123° |
| 2026-04-21 21:00 | 43.58020 | 3.95940 | 21 ft | 8 kts | 152° |
| 2026-04-21 21:00 | 43.57989 | 3.95957 | 22 ft | 1 kts | 163° |
| 2026-04-21 21:01 | 43.57979 | 3.95960 | 22 ft | 0 kts | 165° |